Terminal Aerodrome Forecast
Issued by NWS

Home | Current Version | Previous Version | Text Only | Print | Product List | Glossary On
Versions: 1 2 3 4 5 6 7 8 9 10 11 12 13 14
000
FTAK31 PAJN 291700
TAFAGY
TAF
PAGY 291730Z 2918/3018 04003KT P6SM SKC
     FM292100 21008KT P6SM SKC
     FM292300 21015KT P6SM SKC
     FM300500 04004KT P6SM SKC
      AMD LTD TO CLD VIS AND WIND=

USA.gov is the U.S. government's official web portal to all federal, state and local government web resources and services.